Time;durP1;ratioP1;P1;durP2;ratioP2;P2;SDS_P1;SDS_P2;PMS_P1;PMS_P2;Temp;Humidity;BMP_temperature;BMP_pressure;BME280_temperature;BME280_humidity;BME280_pressure;Samples;Min_cycle;Max_cycle;Signal;HPM_P1;HPM_P2
2022/04/17 00:00:24;;;;;;;;;;;;;;;4.43;58.03;102918.16;5067603;28;19955;-72
2022/04/17 00:02:50;;;;;;;;;;;;;;;4.56;57.79;102923.47;5066798;28;19924;-72
2022/04/17 00:05:18;;;;;;;;;;;;;;;4.33;58.20;102922.41;5069185;28;20284;-72
2022/04/17 00:07:45;;;;;;;;;;;;;;;4.32;58.08;102918.91;5069442;28;19956;-72
2022/04/17 00:10:11;;;;;;;;;;;;;;;4.08;59.22;102905.72;5068487;28;19921;-72
2022/04/17 00:12:39;;;;;;;;;;;;;;;3.34;63.89;102905.78;5067737;28;19952;-72
2022/04/17 00:15:06;;;;;;;;;;;;;;;3.62;63.86;102909.56;5068179;28;20022;-72
2022/04/17 00:17:32;;;;;;;;;;;;;;;3.97;62.10;102917.75;5068459;28;20010;-72
2022/04/17 00:19:59;;;;;;;;;;;;;;;3.74;61.47;102901.03;5067593;28;20030;-72
2022/04/17 00:22:26;;;;;;;;;;;;;;;3.88;60.86;102896.91;5068135;28;19983;-72
2022/04/17 00:24:53;;;;;;;;;;;;;;;3.73;61.14;102900.16;5067732;28;20076;-72
2022/04/17 00:27:19;;;;;;;;;;;;;;;2.90;64.48;102910.38;5070563;28;19920;-72
2022/04/17 00:29:45;;;;;;;;;;;;;;;2.41;67.84;102916.53;5069426;28;19920;-72
2022/04/17 00:32:12;;;;;;;;;;;;;;;2.54;66.67;102919.31;5070113;28;19920;-72
2022/04/17 00:34:38;;;;;;;;;;;;;;;2.96;65.21;102916.50;5070411;28;20422;-72
2022/04/17 00:37:05;;;;;;;;;;;;;;;2.83;65.26;102912.84;5070802;28;20497;-72
2022/04/17 00:39:32;;;;;;;;;;;;;;;2.93;64.82;102913.00;5069988;28;19920;-72
2022/04/17 00:42:00;;;;;;;;;;;;;;;2.77;65.36;102910.19;5070410;28;19978;-72
2022/04/17 00:44:27;;;;;;;;;;;;;;;3.03;64.35;102910.56;5066929;28;19993;-72
2022/04/17 00:46:53;;;;;;;;;;;;;;;3.80;61.70;102903.72;5065937;28;19947;-72
2022/04/17 00:49:19;;;;;;;;;;;;;;;3.67;62.25;102899.25;5049609;28;20273;-72
2022/04/17 00:51:47;;;;;;;;;;;;;;;3.00;63.88;102905.31;5066821;28;19920;-72
2022/04/17 00:54:14;;;;;;;;;;;;;;;2.48;66.81;102907.13;5070560;28;19921;-72
2022/04/17 00:56:42;;;;;;;;;;;;;;;2.42;67.17;102892.38;5070233;28;19966;-72
2022/04/17 00:59:10;;;;;;;;;;;;;;;2.83;66.03;102900.78;5069640;28;20009;-72
2022/04/17 01:01:37;;;;;;;;;;;;;;;3.21;64.59;102893.53;5069511;28;19935;-75
2022/04/17 01:04:03;;;;;;;;;;;;;;;3.50;62.44;102885.22;5068431;28;20160;-75
2022/04/17 01:06:31;;;;;;;;;;;;;;;3.75;61.32;102889.81;5067190;28;19978;-75
2022/04/17 01:08:58;;;;;;;;;;;;;;;3.85;60.95;102894.25;5069164;28;19969;-75
2022/04/17 01:11:25;;;;;;;;;;;;;;;3.78;60.07;102888.13;5069170;28;19975;-74
2022/04/17 01:13:53;;;;;;;;;;;;;;;3.72;60.74;102893.25;5068050;28;19920;-75
2022/04/17 01:16:19;;;;;;;;;;;;;;;3.81;61.02;102887.28;5068449;28;20547;-75
2022/04/17 01:18:56;;;;;;;;;;;;;;;3.72;61.31;102888.06;5069445;28;20269;-75
2022/04/17 01:21:23;;;;;;;;;;;;;;;3.82;60.91;102894.22;5069772;28;19990;-75
2022/04/17 01:29:31;;;;;;;;;;;;;;;3.60;61.65;102897.44;5010782;28;19974;-74
2022/04/17 01:31:57;;;;;;;;;;;;;;;3.55;62.57;102899.13;5057132;28;20008;-73
2022/04/17 01:34:23;;;;;;;;;;;;;;;3.63;62.57;102890.56;5069292;28;19928;-73
2022/04/17 01:36:52;;;;;;;;;;;;;;;3.56;62.20;102895.66;5069460;28;19999;-73
2022/04/17 01:39:18;;;;;;;;;;;;;;;3.49;62.57;102894.72;5068875;28;19920;-74
2022/04/17 01:41:45;;;;;;;;;;;;;;;3.52;62.52;102897.34;5068588;28;19927;-73
2022/04/17 01:44:11;;;;;;;;;;;;;;;3.55;61.76;102893.94;5079820;28;19920;-74
2022/04/17 01:46:38;;;;;;;;;;;;;;;3.42;61.62;102887.72;5088938;28;19969;-73
2022/04/17 01:49:04;;;;;;;;;;;;;;;3.46;61.86;102878.25;5067610;28;20330;-73
2022/04/17 01:51:34;;;;;;;;;;;;;;;3.36;62.81;102887.66;5069733;28;20382;-73
2022/04/17 01:54:02;;;;;;;;;;;;;;;3.06;64.46;102887.28;5069421;28;19928;-73
2022/04/17 01:56:28;;;;;;;;;;;;;;;3.01;64.46;102891.50;5069840;28;19921;-73
2022/04/17 01:58:54;;;;;;;;;;;;;;;2.97;64.52;102893.19;5069842;28;19920;-72
2022/04/17 02:01:21;;;;;;;;;;;;;;;2.94;64.37;102890.56;5070426;28;20292;-72
2022/04/17 02:03:47;;;;;;;;;;;;;;;3.10;63.53;102889.06;5073039;28;19920;-73
2022/04/17 02:06:13;;;;;;;;;;;;;;;2.88;63.72;102891.34;5095504;28;19930;-73
2022/04/17 02:08:39;;;;;;;;;;;;;;;2.72;64.47;102891.97;5093171;28;19908;-72
2022/04/17 02:11:07;;;;;;;;;;;;;;;2.82;64.17;102891.25;5092446;28;19908;-72
2022/04/17 02:13:34;;;;;;;;;;;;;;;2.80;63.89;102880.00;5093086;28;19920;-72
2022/04/17 02:16:00;;;;;;;;;;;;;;;2.78;63.03;102875.63;5092318;28;19924;-73
2022/04/17 02:18:26;;;;;;;;;;;;;;;2.86;62.88;102880.09;5090336;28;19920;-73
2022/04/17 02:20:53;;;;;;;;;;;;;;;3.01;62.59;102873.38;5079415;28;19970;-73
2022/04/17 02:23:20;;;;;;;;;;;;;;;2.95;62.95;102869.00;5069525;28;19924;-73
2022/04/17 02:25:46;;;;;;;;;;;;;;;2.87;63.22;102858.53;5069200;28;19950;-73
2022/04/17 02:28:15;;;;;;;;;;;;;;;2.71;63.35;102869.50;5070199;28;19966;-73
2022/04/17 02:30:41;;;;;;;;;;;;;;;2.81;62.78;102865.31;5068366;28;19920;-73
2022/04/17 02:33:07;;;;;;;;;;;;;;;2.72;62.05;102866.06;5068818;28;19920;-73
2022/04/17 02:35:33;;;;;;;;;;;;;;;2.79;61.55;102873.09;5067739;28;19920;-73
2022/04/17 02:38:00;;;;;;;;;;;;;;;2.75;61.87;102860.94;5068508;28;19924;-73
2022/04/17 02:40:26;;;;;;;;;;;;;;;2.60;63.40;102865.88;5068127;28;19921;-73
2022/04/17 02:42:53;;;;;;;;;;;;;;;2.61;63.24;102862.47;5067963;28;19920;-73
2022/04/17 02:45:21;;;;;;;;;;;;;;;2.46;63.71;102862.22;5068780;28;19921;-73
2022/04/17 02:47:50;;;;;;;;;;;;;;;2.35;63.17;102864.66;5066076;28;20300;-73
2022/04/17 02:50:17;;;;;;;;;;;;;;;2.51;62.50;102868.34;5067903;28;19924;-73
2022/04/17 02:52:44;;;;;;;;;;;;;;;2.53;61.41;102869.25;5068647;28;19971;-73
2022/04/17 02:55:10;;;;;;;;;;;;;;;2.58;61.22;102872.78;5068355;28;19970;-73
2022/04/17 02:57:37;;;;;;;;;;;;;;;2.60;61.49;102870.19;5067980;28;19934;-73
2022/04/17 03:00:03;;;;;;;;;;;;;;;2.69;61.45;102866.03;5067702;28;20223;-73
2022/04/17 03:07:59;;;;;;;;;;;;;;;2.39;63.46;102861.28;5048070;28;19936;-72
2022/04/17 03:10:25;;;;;;;;;;;;;;;2.46;62.93;102867.41;5060932;28;19920;-72
2022/04/17 03:12:52;;;;;;;;;;;;;;;2.43;62.99;102865.66;5067615;28;19928;-73
2022/04/17 03:15:18;;;;;;;;;;;;;;;2.28;63.94;102861.94;5067782;28;19928;-73
2022/04/17 03:17:46;;;;;;;;;;;;;;;2.20;63.84;102866.13;5068346;28;19990;-72
2022/04/17 03:20:12;;;;;;;;;;;;;;;2.03;64.06;102862.38;5067396;28;19920;-72
2022/04/17 03:22:41;;;;;;;;;;;;;;;2.01;63.98;102857.16;5067492;28;19921;-72
2022/04/17 03:25:07;;;;;;;;;;;;;;;2.05;64.00;102860.69;5068106;28;19982;-72
2022/04/17 03:27:33;;;;;;;;;;;;;;;2.17;63.39;102864.34;5067428;28;19951;-72
2022/04/17 03:30:00;;;;;;;;;;;;;;;2.13;62.36;102854.78;5067579;28;19954;-73
2022/04/17 03:32:26;;;;;;;;;;;;;;;2.12;62.00;102860.81;5067355;28;20387;-73
2022/04/17 03:34:54;;;;;;;;;;;;;;;1.89;62.91;102855.25;5068112;28;19990;-73
2022/04/17 03:37:20;;;;;;;;;;;;;;;1.60;64.33;102846.09;5067166;28;20280;-73
2022/04/17 03:39:48;;;;;;;;;;;;;;;1.40;65.48;102829.34;5067944;28;20010;-73
2022/04/17 03:42:14;;;;;;;;;;;;;;;0.76;69.54;102822.88;5067841;28;19920;-73
2022/04/17 03:44:40;;;;;;;;;;;;;;;0.63;70.71;102831.16;5068099;28;19928;-73
2022/04/17 03:47:07;;;;;;;;;;;;;;;0.68;70.40;102828.69;5068040;28;20330;-73
2022/04/17 03:49:33;;;;;;;;;;;;;;;0.54;70.63;102825.81;5065683;28;19928;-72
2022/04/17 03:52:01;;;;;;;;;;;;;;;0.86;70.00;102826.50;5067922;28;19974;-72
2022/04/17 03:54:27;;;;;;;;;;;;;;;1.09;68.16;102826.97;5067414;28;19966;-72
2022/04/17 03:56:53;;;;;;;;;;;;;;;1.07;67.66;102818.34;5067333;28;19970;-72
2022/04/17 03:59:20;;;;;;;;;;;;;;;0.86;68.33;102819.63;5066111;28;19920;-72
2022/04/17 04:01:46;;;;;;;;;;;;;;;0.70;69.51;102817.56;5067922;28;19921;-72
2022/04/17 04:04:14;;;;;;;;;;;;;;;0.67;70.11;102814.03;5067553;28;19920;-70
2022/04/17 04:06:41;;;;;;;;;;;;;;;0.50;70.83;102816.25;5068025;28;19921;-69
2022/04/17 04:09:08;;;;;;;;;;;;;;;0.37;71.34;102812.50;5070662;28;20412;-70
2022/04/17 04:11:34;;;;;;;;;;;;;;;0.70;70.50;102809.81;5069276;28;19928;-70
2022/04/17 04:14:03;;;;;;;;;;;;;;;0.41;72.00;102801.44;5070869;28;19924;-70
2022/04/17 04:16:29;;;;;;;;;;;;;;;0.52;71.86;102796.50;5070231;28;20376;-70
2022/04/17 04:18:56;;;;;;;;;;;;;;;0.71;70.94;102798.66;5068695;28;19921;-70
2022/04/17 04:21:22;;;;;;;;;;;;;;;0.96;69.39;102800.06;5070278;28;19970;-70
2022/04/17 04:23:48;;;;;;;;;;;;;;;1.05;68.47;102789.00;5069866;28;19986;-70
2022/04/17 04:26:16;;;;;;;;;;;;;;;0.88;68.91;102791.28;5069570;28;19926;-70
2022/04/17 04:28:41;;;;;;;;;;;;;;;1.29;68.16;102794.66;5070500;28;19971;-71
2022/04/17 04:31:08;;;;;;;;;;;;;;;1.33;68.14;102794.72;5070711;28;19928;-70
2022/04/17 04:33:35;;;;;;;;;;;;;;;1.54;67.07;102796.00;5070670;28;19927;-70
2022/04/17 04:36:02;;;;;;;;;;;;;;;1.42;66.47;102791.47;5070492;28;19928;-70
2022/04/17 04:38:29;;;;;;;;;;;;;;;1.61;66.00;102793.53;5070060;28;19924;-70
2022/04/17 04:40:55;;;;;;;;;;;;;;;1.42;66.38;102787.16;5069442;28;19970;-70
2022/04/17 04:43:23;;;;;;;;;;;;;;;1.63;66.43;102797.00;5070503;28;19924;-70
2022/04/17 04:46:07;;;;;;;;;;;;;;;1.91;65.78;102799.25;5070697;28;19959;-70
2022/04/17 04:51:17;;;;;;;;;;;;;;;1.79;66.58;102804.19;5071020;28;19928;-70
2022/04/17 04:53:44;;;;;;;;;;;;;;;1.87;66.20;102812.97;5070698;28;19921;-70
2022/04/17 04:56:10;;;;;;;;;;;;;;;1.85;66.13;102813.75;5069675;28;19920;-70
2022/04/17 04:58:38;;;;;;;;;;;;;;;1.79;66.19;102818.84;5069675;28;19920;-71
2022/04/17 05:01:04;;;;;;;;;;;;;;;1.85;66.06;102813.75;5069712;28;20342;-71
2022/04/17 05:03:30;;;;;;;;;;;;;;;2.10;65.41;102820.25;5069403;28;19925;-71
2022/04/17 05:05:56;;;;;;;;;;;;;;;2.25;64.87;102820.47;5070162;28;19974;-71
2022/04/17 05:08:22;;;;;;;;;;;;;;;2.40;64.31;102815.53;5070313;28;20339;-71
2022/04/17 05:10:49;;;;;;;;;;;;;;;2.61;63.79;102814.97;5069598;28;19921;-71
2022/04/17 05:13:17;;;;;;;;;;;;;;;2.70;63.20;102815.06;5069899;28;19920;-70
2022/04/17 05:15:44;;;;;;;;;;;;;;;2.87;63.14;102805.81;5070066;28;19929;-70
2022/04/17 05:18:11;;;;;;;;;;;;;;;2.84;63.19;102809.25;5069584;28;19920;-70
2022/04/17 05:20:37;;;;;;;;;;;;;;;3.09;63.30;102806.97;5069317;28;19920;-69
2022/04/17 05:23:15;;;;;;;;;;;;;;;3.44;62.42;102795.25;5070039;28;20288;-70
2022/04/17 05:25:41;;;;;;;;;;;;;;;4.03;60.84;102802.72;5069764;28;19959;-70
2022/04/17 05:28:08;;;;;;;;;;;;;;;4.24;60.47;102805.47;5069491;28;20136;-69
2022/04/17 05:30:34;;;;;;;;;;;;;;;4.24;60.04;102801.16;5068529;28;19969;-69
2022/04/17 05:33:02;;;;;;;;;;;;;;;4.66;59.14;102794.47;5069673;28;19921;-70
2022/04/17 05:35:28;;;;;;;;;;;;;;;5.00;58.14;102798.97;5069768;28;19966;-70
2022/04/17 05:37:54;;;;;;;;;;;;;;;5.47;57.17;102796.50;5069699;28;20382;-70
2022/04/17 05:40:20;;;;;;;;;;;;;;;5.73;56.76;102797.41;5069088;28;19920;-70
2022/04/17 05:42:46;;;;;;;;;;;;;;;6.04;55.72;102795.72;5069651;28;19920;-70
2022/04/17 05:45:13;;;;;;;;;;;;;;;6.51;55.28;102800.88;5069414;28;20277;-70
2022/04/17 05:47:39;;;;;;;;;;;;;;;6.85;54.89;102793.81;5068898;28;19931;-70
2022/04/17 05:50:07;;;;;;;;;;;;;;;7.29;53.88;102796.22;5068904;28;20335;-70
2022/04/17 05:52:34;;;;;;;;;;;;;;;7.63;51.70;102795.16;5069470;28;19921;-70
2022/04/17 05:55:00;;;;;;;;;;;;;;;7.75;51.92;102797.69;5069466;28;20300;-70
2022/04/17 05:57:26;;;;;;;;;;;;;;;7.95;51.56;102794.91;5068798;28;20334;-71
2022/04/17 05:59:52;;;;;;;;;;;;;;;7.84;52.39;102794.97;5068260;28;19924;-71
2022/04/17 06:02:19;;;;;;;;;;;;;;;7.91;53.78;102805.41;5069100;28;19921;-71
2022/04/17 06:04:47;;;;;;;;;;;;;;;8.41;52.89;102800.63;5068324;28;19927;-71
2022/04/17 06:07:24;;;;;;;;;;;;;;;8.91;51.74;102801.78;5068870;28;19920;-71
2022/04/17 06:09:50;;;;;;;;;;;;;;;9.29;51.36;102808.28;5048393;28;19920;-71
2022/04/17 06:12:16;;;;;;;;;;;;;;;9.53;51.66;102814.06;5055745;28;20342;-71
2022/04/17 06:14:43;;;;;;;;;;;;;;;9.73;51.13;102810.25;5067990;28;20009;-72
2022/04/17 06:17:10;;;;;;;;;;;;;;;9.99;50.34;102812.47;5068423;28;19920;-72
2022/04/17 06:19:36;;;;;;;;;;;;;;;10.05;50.30;102803.66;5067380;28;19920;-73
2022/04/17 06:22:02;;;;;;;;;;;;;;;9.85;50.81;102803.09;5068853;28;19974;-72
2022/04/17 06:24:30;;;;;;;;;;;;;;;10.36;48.51;102802.25;5068487;28;19920;-72
2022/04/17 06:26:57;;;;;;;;;;;;;;;10.68;47.20;102801.63;5067484;28;20505;-72
2022/04/17 06:29:23;;;;;;;;;;;;;;;11.23;45.43;102799.59;5066520;28;19920;-72
2022/04/17 06:31:49;;;;;;;;;;;;;;;11.08;45.46;102804.34;5069468;28;20331;-73
2022/04/17 06:34:16;;;;;;;;;;;;;;;11.44;46.24;102795.66;5068218;28;19924;-72
2022/04/17 06:36:42;;;;;;;;;;;;;;;12.04;44.59;102800.38;5068228;28;20327;-72
2022/04/17 06:39:08;;;;;;;;;;;;;;;12.17;42.45;102789.50;5067711;28;19931;-72
2022/04/17 06:41:36;;;;;;;;;;;;;;;12.52;41.59;102793.84;5068412;28;19987;-72
2022/04/17 06:44:02;;;;;;;;;;;;;;;12.36;43.67;102784.63;5068480;28;19924;-72
2022/04/17 06:46:29;;;;;;;;;;;;;;;12.08;41.11;102783.63;5068709;28;19927;-72
2022/04/17 06:48:55;;;;;;;;;;;;;;;11.66;45.55;102788.13;5067489;28;20384;-72
2022/04/17 06:51:24;;;;;;;;;;;;;;;11.78;42.26;102790.50;5068649;28;19920;-72
2022/04/17 06:53:50;;;;;;;;;;;;;;;12.80;41.98;102772.88;5067797;28;20321;-72
2022/04/17 06:56:18;;;;;;;;;;;;;;;12.56;37.20;102779.66;5068278;28;19924;-72
2022/04/17 06:58:45;;;;;;;;;;;;;;;12.73;37.51;102775.72;5067688;28;20353;-72
2022/04/17 07:01:14;;;;;;;;;;;;;;;13.29;39.44;102782.84;5067990;28;19947;-72
2022/04/17 07:03:40;;;;;;;;;;;;;;;12.85;39.56;102773.59;5068030;28;19970;-72
2022/04/17 07:06:06;;;;;;;;;;;;;;;12.15;41.46;102777.31;5068441;28;19920;-72
2022/04/17 07:08:33;;;;;;;;;;;;;;;12.93;43.30;102779.53;5067909;28;19924;-71
2022/04/17 07:11:00;;;;;;;;;;;;;;;13.24;41.81;102782.13;5062211;28;19974;-71
2022/04/17 07:13:26;;;;;;;;;;;;;;;13.55;38.71;102780.28;5067216;28;20317;-71
2022/04/17 07:15:54;;;;;;;;;;;;;;;13.43;40.11;102770.09;5066881;28;19924;-71
2022/04/17 07:18:20;;;;;;;;;;;;;;;13.66;37.58;102769.38;5068525;28;19921;-72
2022/04/17 07:20:46;;;;;;;;;;;;;;;14.03;32.83;102761.09;5067383;28;19956;-72
2022/04/17 07:23:13;;;;;;;;;;;;;;;12.89;31.97;102766.47;5067953;28;19920;-72
2022/04/17 07:25:39;;;;;;;;;;;;;;;13.26;31.98;102767.16;5067298;28;19978;-70
2022/04/17 07:28:06;;;;;;;;;;;;;;;13.74;36.88;102771.75;5067237;28;19970;-71
2022/04/17 07:30:33;;;;;;;;;;;;;;;13.77;33.89;102769.03;5067168;28;19977;-71
2022/04/17 07:33:01;;;;;;;;;;;;;;;12.27;34.12;102781.38;5067007;28;19924;-71
2022/04/17 07:35:28;;;;;;;;;;;;;;;12.48;35.18;102776.41;5067108;28;20346;-71
2022/04/17 07:37:55;;;;;;;;;;;;;;;12.35;36.59;102766.25;5067639;28;20288;-71
2022/04/17 07:40:25;;;;;;;;;;;;;;;12.01;36.13;102763.66;5067052;28;19920;-71
2022/04/17 07:42:51;;;;;;;;;;;;;;;12.50;36.81;102760.56;5069951;28;20003;-71
2022/04/17 07:45:18;;;;;;;;;;;;;;;12.62;35.41;102750.56;5071922;28;19920;-71
2022/04/17 07:47:45;;;;;;;;;;;;;;;13.16;34.62;102753.38;5071170;28;19920;-71
2022/04/17 07:50:14;;;;;;;;;;;;;;;13.23;36.32;102750.56;5069628;28;19928;-70
2022/04/17 07:52:41;;;;;;;;;;;;;;;13.94;32.54;102745.59;5071466;28;19930;-69
2022/04/17 07:55:08;;;;;;;;;;;;;;;12.15;35.65;102762.41;5071459;28;19920;-70
2022/04/17 07:57:55;;;;;;;;;;;;;;;11.94;36.44;102762.06;5070580;28;19943;-70
2022/04/17 08:00:22;;;;;;;;;;;;;;;12.18;33.09;102750.91;5069893;28;19920;-71
2022/04/17 08:02:53;;;;;;;;;;;;;;;12.75;33.80;102744.97;5069809;28;20015;-71
2022/04/17 08:05:21;;;;;;;;;;;;;;;13.34;34.23;102749.31;5071681;28;20315;-71
2022/04/17 08:07:48;;;;;;;;;;;;;;;13.38;34.37;102758.84;5071584;28;19920;-70
2022/04/17 08:10:14;;;;;;;;;;;;;;;12.99;34.59;102757.41;5070971;28;20475;-71
2022/04/17 08:12:40;;;;;;;;;;;;;;;12.50;34.66;102750.03;5070994;28;19921;-71
2022/04/17 08:15:08;;;;;;;;;;;;;;;12.69;37.23;102757.38;5070476;28;19927;-71
2022/04/17 08:17:35;;;;;;;;;;;;;;;13.18;37.32;102755.09;5070118;28;20367;-71
2022/04/17 08:20:01;;;;;;;;;;;;;;;13.38;35.13;102753.56;5070223;28;19966;-71
2022/04/17 08:22:28;;;;;;;;;;;;;;;13.33;34.72;102758.13;5071463;28;19969;-71
2022/04/17 08:24:55;;;;;;;;;;;;;;;13.24;33.80;102763.69;5071191;28;19943;-71
2022/04/17 08:27:21;;;;;;;;;;;;;;;12.75;33.99;102756.31;5070662;28;19920;-71
2022/04/17 08:29:47;;;;;;;;;;;;;;;13.06;32.10;102751.91;5069603;28;19978;-72
2022/04/17 08:32:13;;;;;;;;;;;;;;;14.40;38.37;102743.13;5069805;28;20364;-71
2022/04/17 08:34:39;;;;;;;;;;;;;;;14.59;33.25;102741.53;5070199;28;19920;-72
2022/04/17 08:37:06;;;;;;;;;;;;;;;14.73;30.08;102737.50;5070934;28;19921;-72
2022/04/17 08:39:33;;;;;;;;;;;;;;;14.54;28.97;102727.63;5069966;28;19920;-71
2022/04/17 08:42:01;;;;;;;;;;;;;;;14.85;32.05;102742.34;5070547;28;20375;-71
2022/04/17 08:44:27;;;;;;;;;;;;;;;14.92;31.27;102739.41;5070637;28;20350;-71
2022/04/17 08:46:54;;;;;;;;;;;;;;;15.02;30.55;102745.19;5070584;28;19928;-70
2022/04/17 08:49:20;;;;;;;;;;;;;;;14.55;29.48;102741.69;5068852;28;19990;-70
2022/04/17 08:51:48;;;;;;;;;;;;;;;15.15;31.98;102740.31;5065809;28;19920;-71
2022/04/17 08:54:14;;;;;;;;;;;;;;;15.92;32.21;102739.81;5069847;28;20273;-71
2022/04/17 08:56:42;;;;;;;;;;;;;;;16.73;27.10;102737.13;5069557;28;19921;-71
2022/04/17 08:59:08;;;;;;;;;;;;;;;17.21;28.61;102737.47;5069223;28;19924;-72
2022/04/17 09:01:36;;;;;;;;;;;;;;;17.02;26.30;102741.91;5069778;28;19921;-72
2022/04/17 09:04:02;;;;;;;;;;;;;;;16.78;29.43;102732.44;5069423;28;20334;-72
2022/04/17 09:06:29;;;;;;;;;;;;;;;16.64;29.53;102734.88;5069630;28;20398;-72
2022/04/17 09:09:00;;;;;;;;;;;;;;;15.79;28.36;102731.50;5069285;28;19924;-72
2022/04/17 09:11:27;;;;;;;;;;;;;;;14.98;31.25;102714.53;5063787;28;20504;-71
2022/04/17 09:13:56;;;;;;;;;;;;;;;15.28;30.97;102718.59;5075624;28;20135;-71
2022/04/17 09:16:25;;;;;;;;;;;;;;;14.50;31.62;102715.47;5066106;28;19943;-71
2022/04/17 09:18:51;;;;;;;;;;;;;;;13.76;32.90;102718.06;5068261;28;20365;-70
2022/04/17 09:21:27;;;;;;;;;;;;;;;13.77;38.52;102716.28;5069106;28;19966;-70
2022/04/17 09:23:54;;;;;;;;;;;;;;;14.66;32.04;102699.06;5069034;28;19925;-70
2022/04/17 09:26:24;;;;;;;;;;;;;;;15.53;32.12;102698.22;5070285;28;19971;-70
2022/04/17 09:28:50;;;;;;;;;;;;;;;15.21;31.96;102705.69;5068092;28;19924;-70
2022/04/17 09:31:17;;;;;;;;;;;;;;;15.35;32.61;102692.78;5068850;28;19920;-70
2022/04/17 09:33:49;;;;;;;;;;;;;;;15.43;31.26;102694.19;5069055;28;19920;-70
2022/04/17 09:36:15;;;;;;;;;;;;;;;14.94;38.04;102695.28;5068880;28;19921;-70
2022/04/17 09:38:42;;;;;;;;;;;;;;;15.16;33.00;102689.16;5067952;28;19981;-70
2022/04/17 09:41:13;;;;;;;;;;;;;;;15.01;33.40;102685.34;5068963;28;20281;-71
2022/04/17 09:43:39;;;;;;;;;;;;;;;14.87;34.70;102677.97;5069291;28;20082;-71
2022/04/17 09:46:06;;;;;;;;;;;;;;;14.55;33.10;102687.13;5069276;28;20406;-71
2022/04/17 09:48:35;;;;;;;;;;;;;;;14.69;34.35;102673.38;5068810;28;20273;-67
2022/04/17 09:51:02;;;;;;;;;;;;;;;13.78;35.71;102670.56;5066375;28;20265;-66
2022/04/17 09:53:33;;;;;;;;;;;;;;;14.24;37.20;102664.50;5068772;28;19965;-67
2022/04/17 09:56:06;;;;;;;;;;;;;;;13.64;38.40;102660.47;5069188;28;19966;-67
2022/04/17 09:58:34;;;;;;;;;;;;;;;14.63;37.21;102658.63;5068968;28;19966;-67
2022/04/17 10:01:03;;;;;;;;;;;;;;;15.09;37.34;102656.84;5068419;28;20352;-67
2022/04/17 10:03:29;;;;;;;;;;;;;;;15.31;34.39;102651.53;5068459;28;20406;-67
2022/04/17 10:05:57;;;;;;;;;;;;;;;15.33;36.18;102666.44;5067205;28;19920;-68
2022/04/17 10:08:26;;;;;;;;;;;;;;;15.37;38.64;102659.22;5069120;28;19967;-67
2022/04/17 10:10:52;;;;;;;;;;;;;;;15.45;36.65;102659.75;5067972;28;19934;-67
2022/04/17 10:13:19;;;;;;;;;;;;;;;15.51;33.69;102643.69;5069401;28;19959;-67
2022/04/17 10:15:46;;;;;;;;;;;;;;;15.23;33.41;102638.63;5068710;28;20368;-67
2022/04/17 10:18:13;;;;;;;;;;;;;;;15.86;34.98;102636.88;5068759;28;19928;-67
2022/04/17 10:20:39;;;;;;;;;;;;;;;15.81;33.25;102631.81;5067724;28;19921;-67
2022/04/17 10:23:09;;;;;;;;;;;;;;;15.74;34.28;102629.50;5067866;28;19950;-67
2022/04/17 10:25:37;;;;;;;;;;;;;;;16.80;38.09;102627.28;5064556;28;20396;-67
2022/04/17 10:28:05;;;;;;;;;;;;;;;16.87;32.54;102618.09;5066866;28;20490;-67
2022/04/17 10:30:38;;;;;;;;;;;;;;;17.21;32.46;102614.66;5066111;28;19997;-67
2022/04/17 10:33:23;;;;;;;;;;;;;;;17.60;33.15;102612.66;5067720;28;20279;-67
2022/04/17 10:38:07;;;;;;;4.68;2.80;;;;;;;18.04;35.14;102604.16;5043791;27;20403;-66
2022/04/17 10:40:34;;;;;;;6.15;3.15;;;;;;;17.88;32.99;102604.13;5040548;28;20045;-67
2022/04/17 10:43:01;;;;;;;4.50;2.75;;;;;;;17.84;33.29;102595.50;5044465;28;20140;-67
2022/04/17 10:45:31;;;;;;;4.20;2.70;;;;;;;17.52;29.65;102593.59;5044615;28;20049;-67
2022/04/17 10:48:09;;;;;;;6.03;2.70;;;;;;;16.60;35.18;102600.84;5044503;28;20056;-67
2022/04/17 10:50:42;;;;;;;4.70;2.88;;;;;;;16.35;36.65;102595.81;5043940;28;20048;-67
2022/04/17 10:53:25;;;;;;;4.57;2.60;;;;;;;17.27;32.99;102596.66;5044345;28;20041;-67
2022/04/17 10:56:05;;;;;;;5.22;2.85;;;;;;;18.02;34.45;102584.81;5044280;28;20118;-67
2022/04/17 10:58:35;;;;;;;3.13;2.40;;;;;;;18.47;31.44;102585.84;5044016;28;20114;-67
2022/04/17 11:01:01;;;;;;;3.58;2.33;;;;;;;18.73;34.69;102586.19;5043539;28;20049;-67
2022/04/17 11:03:28;;;;;;;7.28;2.17;;;;;;;18.22;32.69;102571.31;5044513;28;20049;-67
2022/04/17 11:08:52;;;;;;;5.45;2.50;;;;;;;17.15;31.25;102569.88;5042159;28;20045;-67
2022/04/17 11:11:18;;;;;;;6.03;2.50;;;;;;;17.67;33.35;102562.78;5028055;28;20117;-67
2022/04/17 11:14:05;;;;;;;2.90;2.10;;;;;;;16.78;30.01;102562.88;5017138;28;20454;-67
2022/04/17 11:16:38;;;;;;;5.35;2.08;;;;;;;16.68;33.12;102565.13;5022307;28;20045;-67
2022/04/17 11:19:06;;;;;;;4.57;2.45;;;;;;;17.03;33.79;102555.47;5023432;28;20046;-67
2022/04/17 11:21:37;;;;;;;4.22;2.20;;;;;;;18.17;31.51;102550.34;5022952;28;20061;-67
2022/04/17 11:24:05;;;;;;;4.20;2.67;;;;;;;16.04;31.63;102540.78;5024552;28;20045;-67
2022/04/17 11:27:09;;;;;;;3.47;2.28;;;;;;;16.92;32.26;102533.94;5024829;28;20088;-67
2022/04/17 11:29:43;;;;;;;3.90;2.03;;;;;;;17.56;33.90;102528.84;5010711;28;20062;-67
2022/04/17 11:32:51;;;;;;;2.95;1.95;;;;;;;18.17;33.53;102542.38;5018009;28;20045;-67
2022/04/17 11:35:20;;;;;;;4.47;2.55;;;;;;;18.43;33.00;102540.94;5015572;28;20057;-66
2022/04/17 11:37:55;;;;;;;3.45;2.50;;;;;;;17.92;31.34;102545.47;5005019;28;20042;-66
2022/04/17 11:40:26;;;;;;;4.63;2.47;;;;;;;18.01;33.91;102533.53;5024030;28;20045;-66
2022/04/17 11:42:55;;;;;;;4.32;2.10;;;;;;;19.11;32.13;102531.66;5008247;28;20121;-66
2022/04/17 11:45:23;;;;;;;4.50;2.20;;;;;;;18.85;33.41;102521.69;5020553;28;20073;-66
2022/04/17 11:47:50;;;;;;;2.60;1.92;;;;;;;19.21;29.27;102511.56;5016990;28;20049;-66
2022/04/17 11:50:22;;;;;;;5.43;2.40;;;;;;;18.59;31.76;102504.59;5010576;28;20066;-66
2022/04/17 11:52:49;;;;;;;;;;;;;;;17.57;28.71;102508.50;5011921;28;20134;-66
2022/04/17 11:55:16;;;;;;;4.55;2.42;;;;;;;16.79;30.81;102511.63;5011347;28;19947;-66
2022/04/17 11:57:43;;;;;;;4.70;1.85;;;;;;;17.72;28.73;102519.19;5009061;28;20131;-66
2022/04/17 12:00:12;;;;;;;2.58;1.70;;;;;;;17.48;28.94;102521.28;5009910;28;20049;-66
2022/04/17 12:02:39;;;;;;;4.93;1.90;;;;;;;18.24;33.06;102519.00;5010503;28;20509;-66
2022/04/17 12:05:07;;;;;;;4.22;1.92;;;;;;;18.51;27.66;102512.16;4988983;28;20051;-66
2022/04/17 12:07:33;;;;;;;4.35;1.90;;;;;;;18.79;37.62;102503.47;5008871;28;20498;-66
2022/04/17 12:10:04;;;;;;;2.60;1.50;;;;;;;19.13;29.66;102497.00;5006006;28;20457;-66
2022/04/17 12:12:34;;;;;;;2.63;1.50;;;;;;;19.51;31.79;102500.88;5010135;28;20510;-67
2022/04/17 12:15:03;;;;;;;2.15;1.65;;;;;;;19.87;27.76;102495.97;5010561;28;20050;-66
2022/04/17 12:17:30;;;;;;;3.78;1.90;;;;;;;19.39;28.88;102489.19;5010188;28;20073;-66
2022/04/17 12:19:56;;;;;;;3.58;1.80;;;;;;;19.81;29.35;102495.47;5001438;28;20112;-66
2022/04/17 12:22:23;;;;;;;3.13;1.95;;;;;;;19.50;31.79;102485.03;5009542;28;20123;-66
2022/04/17 12:24:49;;;;;;;3.42;1.85;;;;;;;19.66;30.31;102480.47;5010360;28;20045;-66
2022/04/17 12:27:19;;;;;;;4.18;1.80;;;;;;;18.54;29.97;102474.81;5001603;28;20069;-66
2022/04/17 12:29:46;;;;;;;2.90;1.80;;;;;;;17.85;29.56;102467.16;5009195;28;20093;-66
2022/04/17 12:32:15;;;;;;;5.00;2.35;;;;;;;17.69;29.55;102462.78;5006954;28;20073;-66
2022/04/17 12:34:45;;;;;;;2.65;1.70;;;;;;;17.35;30.85;102458.38;5004082;28;20052;-66
2022/04/17 12:37:20;;;;;;;2.47;1.30;;;;;;;17.75;34.98;102457.13;4997773;28;20064;-66
2022/04/17 12:39:47;;;;;;;3.08;1.80;;;;;;;18.06;31.23;102448.34;5005760;28;20050;-66
2022/04/17 12:42:17;;;;;;;3.28;1.80;;;;;;;18.64;29.80;102436.13;5009684;28;20041;-66
2022/04/17 12:44:44;;;;;;;2.63;1.63;;;;;;;18.12;30.25;102429.41;5013762;28;20046;-66
2022/04/17 12:47:11;;;;;;;3.13;1.80;;;;;;;17.24;33.98;102424.47;5019058;28;20046;-65
2022/04/17 12:49:39;;;;;;;2.90;1.80;;;;;;;17.24;34.36;102420.97;5002150;28;20077;-65